Time;durP1;ratioP1;P1;durP2;ratioP2;P2;SDS_P1;SDS_P2;PMS_P1;PMS_P2;Temp;Humidity;BMP_temperature;BMP_pressure;BME280_temperature;BME280_humidity;BME280_pressure;Samples;Min_cycle;Max_cycle;Signal;HPM_P1;HPM_P2
2024/01/31 00:00:28;;;;;;;;;;;;;;;1.55;75.22;100899.48;109601;1253;73199;-72
2024/01/31 00:02:56;;;;;;;;;;;;;;;1.48;75.80;100897.09;109583;1254;61182;-68
2024/01/31 00:05:23;;;;;;;;;;;;;;;1.48;76.03;100896.72;109262;1254;61455;-68
2024/01/31 00:07:51;;;;;;;;;;;;;;;1.31;76.82;100888.07;109591;1253;76908;-67
2024/01/31 00:10:19;;;;;;;;;;;;;;;1.32;77.07;100883.75;109617;1252;69491;-68
2024/01/31 00:12:46;;;;;;;;;;;;;;;1.34;77.13;100881.44;109608;1253;73985;-68
2024/01/31 00:15:16;;;;;;;;;;;;;;;1.32;77.43;100883.55;109248;1254;58993;-68
2024/01/31 00:17:44;;;;;;;;;;;;;;;1.34;77.02;100882.52;109627;1253;62083;-68
2024/01/31 00:20:11;;;;;;;;;;;;;;;1.27;77.73;100882.31;109606;1254;75755;-68
2024/01/31 00:22:39;;;;;;;;;;;;;;;1.34;77.03;100889.15;109636;1253;71076;-68
2024/01/31 00:25:07;;;;;;;;;;;;;;;1.40;76.71;100881.73;109418;1254;72673;-69
2024/01/31 00:27:34;;;;;;;;;;;;;;;1.16;77.91;100877.19;109074;1260;59138;-68
2024/01/31 00:30:03;;;;;;;;;;;;;;;1.12;78.30;100872.80;109127;1254;60885;-68
2024/01/31 00:32:31;;;;;;;;;;;;;;;1.05;78.68;100865.08;109433;1254;75963;-67
2024/01/31 00:34:59;;;;;;;;;;;;;;;1.12;78.32;100869.27;109203;1257;68466;-68
2024/01/31 00:37:26;;;;;;;;;;;;;;;1.23;77.64;100871.46;109112;1257;71743;-68
2024/01/31 00:39:54;;;;;;;;;;;;;;;1.17;77.89;100866.84;109101;1257;61029;-68
2024/01/31 00:42:21;;;;;;;;;;;;;;;1.19;77.75;100867.30;109100;1257;59228;-69
2024/01/31 00:44:49;;;;;;;;;;;;;;;1.19;77.57;100864.33;109169;1257;73049;-68
2024/01/31 00:47:17;;;;;;;;;;;;;;;1.20;77.77;100862.74;109098;1257;68983;-68
2024/01/31 00:49:44;;;;;;;;;;;;;;;1.27;77.52;100859.23;109145;1257;73230;-68
2024/01/31 00:52:12;;;;;;;;;;;;;;;1.32;77.22;100854.78;109113;1257;63126;-68
2024/01/31 00:54:40;;;;;;;;;;;;;;;1.43;76.83;100858.21;109169;1257;59948;-67
2024/01/31 00:57:07;;;;;;;;;;;;;;;1.45;76.53;100858.62;109249;1257;73238;-68
2024/01/31 00:59:35;;;;;;;;;;;;;;;1.44;76.55;100865.20;109193;1257;67944;-68
2024/01/31 01:02:02;;;;;;;;;;;;;;;1.56;75.59;100869.59;109254;1257;71159;-68
2024/01/31 01:04:30;;;;;;;;;;;;;;;1.60;75.23;100872.38;109277;1257;59668;-67
2024/01/31 01:06:58;;;;;;;;;;;;;;;1.63;74.93;100870.14;109545;1254;58932;-67
2024/01/31 01:09:25;;;;;;;;;;;;;;;1.38;75.89;100869.21;109598;1254;76043;-67
2024/01/31 01:11:53;;;;;;;;;;;;;;;1.28;76.69;100865.52;109255;1253;66844;-67
2024/01/31 01:14:20;;;;;;;;;;;;;;;1.29;77.00;100864.52;109223;1254;72613;-68
2024/01/31 01:16:48;;;;;;;;;;;;;;;1.37;77.01;100859.86;109574;1252;59795;-67
2024/01/31 01:19:15;;;;;;;;;;;;;;;1.35;76.96;100861.43;109655;1253;59095;-68
2024/01/31 01:21:43;;;;;;;;;;;;;;;1.37;76.72;100859.45;109608;1253;76811;-68
2024/01/31 01:24:10;;;;;;;;;;;;;;;1.39;76.55;100857.05;109315;1253;67228;-67
2024/01/31 01:26:40;;;;;;;;;;;;;;;1.40;76.61;100854.37;107703;1257;1002990;-68
2024/01/31 01:29:09;;;;;;;;;;;;;;;1.44;76.40;100844.96;109169;1257;60763;-69
2024/01/31 01:31:36;;;;;;;;;;;;;;;1.38;77.07;100838.88;109121;1256;60146;-68
2024/01/31 01:34:04;;;;;;;;;;;;;;;1.49;76.33;100831.00;109027;1257;73506;-68
2024/01/31 01:36:31;;;;;;;;;;;;;;;1.52;76.11;100829.65;109095;1262;69883;-68
2024/01/31 01:39:00;;;;;;;;;;;;;;;1.40;76.74;100824.84;109179;1257;75075;-66
2024/01/31 01:41:27;;;;;;;;;;;;;;;1.47;76.59;100817.64;109057;1258;62199;-67
2024/01/31 01:43:55;;;;;;;;;;;;;;;1.50;76.37;100817.84;109149;1256;59746;-67
2024/01/31 01:46:22;;;;;;;;;;;;;;;1.50;76.16;100815.73;109085;1257;74279;-67
2024/01/31 01:48:50;;;;;;;;;;;;;;;1.53;76.37;100809.98;109193;1255;67834;-68
2024/01/31 01:51:18;;;;;;;;;;;;;;;1.67;75.43;100810.84;109228;1257;71363;-68
2024/01/31 01:53:45;;;;;;;;;;;;;;;1.52;76.60;100806.89;109006;1256;61045;-68
2024/01/31 01:56:18;;;;;;;;;;;;;;;1.56;76.72;100800.22;109178;1260;60854;-68
2024/01/31 01:58:47;;;;;;;;;;;;;;;1.55;76.76;100793.83;109608;1251;74690;-68
2024/01/31 02:01:14;;;;;;;;;;;;;;;1.44;77.01;100790.39;109576;1252;67650;-67
2024/01/31 02:03:43;;;;;;;;;;;;;;;1.51;76.93;100791.13;109612;1251;74319;-68
2024/01/31 02:06:11;;;;;;;;;;;;;;;1.43;77.18;100790.39;109526;1255;59603;-68
2024/01/31 02:08:38;;;;;;;;;;;;;;;1.37;77.38;100790.77;109353;1254;60154;-68
2024/01/31 02:11:07;;;;;;;;;;;;;;;1.51;77.02;100790.59;109267;1257;74794;-67
2024/01/31 02:13:34;;;;;;;;;;;;;;;1.61;76.10;100789.50;109260;1257;68146;-68
2024/01/31 02:16:02;;;;;;;;;;;;;;;1.42;76.78;100786.52;109227;1256;73070;-66
2024/01/31 02:18:29;;;;;;;;;;;;;;;1.42;76.64;100786.72;109182;1257;59742;-67
2024/01/31 02:20:57;;;;;;;;;;;;;;;1.52;76.03;100788.66;109233;1257;62362;-67
2024/01/31 02:23:24;;;;;;;;;;;;;;;1.57;75.75;100790.27;109223;1257;74142;-67
2024/01/31 02:25:52;;;;;;;;;;;;;;;1.62;75.58;100790.63;109234;1257;68576;-65
2024/01/31 02:28:19;;;;;;;;;;;;;;;1.69;75.13;100795.83;109196;1256;74507;-65
2024/01/31 02:30:47;;;;;;;;;;;;;;;1.74;74.98;100793.71;109194;1256;60985;-66
2024/01/31 02:33:14;;;;;;;;;;;;;;;1.71;75.09;100790.00;109280;1256;59138;-65
2024/01/31 02:35:42;;;;;;;;;;;;;;;1.68;75.27;100787.52;109206;1257;75048;-67
2024/01/31 02:38:10;;;;;;;;;;;;;;;1.58;75.96;100779.97;109487;1256;68548;-67
2024/01/31 02:40:37;;;;;;;;;;;;;;;1.64;75.85;100779.61;109630;1253;71960;-66
2024/01/31 02:43:05;;;;;;;;;;;;;;;1.63;75.68;100775.17;109593;1256;59934;-66
2024/01/31 02:45:33;;;;;;;;;;;;;;;1.62;76.33;100774.42;109569;1254;60878;-66
2024/01/31 02:48:01;;;;;;;;;;;;;;;1.60;76.36;100774.61;109638;1253;74877;-66
2024/01/31 02:50:31;;;;;;;;;;;;;;;1.57;76.43;100776.36;109590;1253;70392;-67
2024/01/31 02:52:59;;;;;;;;;;;;;;;1.54;76.88;100773.89;109628;1254;74688;-67
2024/01/31 02:55:27;;;;;;;;;;;;;;;1.48;77.56;100771.17;109616;1253;59095;-66
2024/01/31 02:57:54;;;;;;;;;;;;;;;1.52;77.37;100770.45;109596;1253;60945;-66
2024/01/31 03:00:22;;;;;;;;;;;;;;;1.52;77.03;100765.52;109630;1253;73352;-67
2024/01/31 03:02:49;;;;;;;;;;;;;;;1.45;77.47;100768.63;109245;1254;69378;-66
2024/01/31 03:05:17;;;;;;;;;;;;;;;1.48;77.41;100768.95;109618;1252;71821;-64
2024/01/31 03:07:44;;;;;;;;;;;;;;;1.52;77.31;100772.46;109607;1252;61786;-66
2024/01/31 03:10:12;;;;;;;;;;;;;;;1.48;77.45;100774.58;109637;1253;59152;-66
2024/01/31 03:12:40;;;;;;;;;;;;;;;1.53;77.13;100777.11;109446;1254;74496;-67
2024/01/31 03:15:07;;;;;;;;;;;;;;;1.47;77.09;100779.01;109418;1254;70659;-66
2024/01/31 03:17:35;;;;;;;;;;;;;;;1.50;76.62;100783.39;109368;1254;71216;-66
2024/01/31 03:20:05;;;;;;;;;;;;;;;1.41;77.04;100786.80;109408;1255;59946;-66
2024/01/31 03:22:36;;;;;;;;;;;;;;;1.40;77.02;100789.26;109436;1254;59054;-66
2024/01/31 03:25:04;;;;;;;;;;;;;;;1.32;77.43;100787.66;109345;1257;76574;-66
2024/01/31 03:27:32;;;;;;;;;;;;;;;1.40;77.00;100785.55;109281;1254;68962;-66
2024/01/31 03:30:02;;;;;;;;;;;;;;;1.42;77.02;100780.89;109411;1254;74973;-66
2024/01/31 03:32:36;;;;;;;;;;;;;;;1.41;76.85;100780.63;109393;1256;59690;-66
2024/01/31 03:35:04;;;;;;;;;;;;;;;1.49;76.59;100781.79;109176;1254;60185;-66
2024/01/31 03:37:31;;;;;;;;;;;;;;;1.50;76.59;100778.65;109319;1254;73867;-66
2024/01/31 03:39:59;;;;;;;;;;;;;;;1.55;76.63;100776.20;109323;1254;68804;-66
2024/01/31 03:42:27;;;;;;;;;;;;;;;1.48;76.82;100775.04;109304;1254;72175;-66
2024/01/31 03:44:55;;;;;;;;;;;;;;;1.41;77.80;100771.83;109536;1253;59405;-64
2024/01/31 03:47:23;;;;;;;;;;;;;;;1.42;77.81;100773.52;109618;1252;60314;-66
2024/01/31 03:49:52;;;;;;;;;;;;;;;1.50;77.50;100772.16;109245;1253;75232;-66
2024/01/31 03:52:19;;;;;;;;;;;;;;;1.55;76.99;100774.58;109600;1253;67320;-66
2024/01/31 03:54:47;;;;;;;;;;;;;;;1.52;77.11;100770.15;109160;1252;72615;-66
2024/01/31 03:57:14;;;;;;;;;;;;;;;1.42;77.74;100767.49;109600;1254;62861;-66
2024/01/31 03:59:42;;;;;;;;;;;;;;;1.38;78.02;100761.61;109589;1253;60707;-65
2024/01/31 04:02:09;;;;;;;;;;;;;;;1.42;77.78;100765.91;109634;1254;76359;-66
2024/01/31 04:04:37;;;;;;;;;;;;;;;1.41;77.59;100765.11;108413;1252;1002185;-66
2024/01/31 04:07:04;;;;;;;;;;;;;;;1.32;78.13;100760.52;109584;1254;72167;-66
2024/01/31 04:09:32;;;;;;;;;;;;;;;1.24;78.90;100755.70;109576;1252;62468;-67
2024/01/31 04:11:59;;;;;;;;;;;;;;;1.18;79.04;100749.09;109602;1254;61383;-67
2024/01/31 04:14:27;;;;;;;;;;;;;;;1.17;79.37;100749.71;109165;1253;75599;-66
2024/01/31 04:16:54;;;;;;;;;;;;;;;1.23;78.90;100746.30;109626;1254;71125;-65
2024/01/31 04:19:22;;;;;;;;;;;;;;;1.16;79.12;100744.91;109577;1253;71650;-67
2024/01/31 04:21:49;;;;;;;;;;;;;;;1.02;79.73;100744.09;109590;1252;61998;-66
2024/01/31 04:24:17;;;;;;;;;;;;;;;1.09;79.29;100738.75;109615;1253;60773;-67
2024/01/31 04:26:44;;;;;;;;;;;;;;;1.01;79.64;100736.77;109208;1252;73327;-66
2024/01/31 04:29:12;;;;;;;;;;;;;;;1.02;79.59;100740.36;109596;1254;70810;-65
2024/01/31 04:31:39;;;;;;;;;;;;;;;1.08;79.05;100740.14;109646;1253;75023;-68
2024/01/31 04:34:08;;;;;;;;;;;;;;;1.06;79.15;100742.22;109591;1253;60535;-65
2024/01/31 04:36:36;;;;;;;;;;;;;;;1.06;78.98;100737.09;109636;1252;58918;-67
2024/01/31 04:39:03;;;;;;;;;;;;;;;1.10;78.54;100733.17;109646;1253;75251;-66
2024/01/31 04:41:31;;;;;;;;;;;;;;;1.04;78.83;100729.39;109621;1252;70283;-67
2024/01/31 04:43:58;;;;;;;;;;;;;;;1.04;78.92;100731.15;109599;1253;70868;-65
2024/01/31 04:46:26;;;;;;;;;;;;;;;1.01;79.06;100730.94;109211;1257;59785;-65
2024/01/31 04:48:53;;;;;;;;;;;;;;;0.99;79.02;100728.83;109628;1253;59698;-64
2024/01/31 04:51:21;;;;;;;;;;;;;;;0.83;80.10;100723.53;109612;1253;73254;-63
2024/01/31 04:53:49;;;;;;;;;;;;;;;0.77;80.76;100718.37;109609;1253;70191;-65
2024/01/31 04:56:18;;;;;;;;;;;;;;;0.85;80.40;100718.02;109577;1252;73552;-65
2024/01/31 04:58:45;;;;;;;;;;;;;;;0.80;80.56;100710.95;109560;1253;62318;-65
2024/01/31 05:01:13;;;;;;;;;;;;;;;0.80;80.87;100709.30;109634;1254;60743;-65
2024/01/31 05:03:41;;;;;;;;;;;;;;;0.84;80.66;100704.77;109593;1253;76222;-67
2024/01/31 05:06:08;;;;;;;;;;;;;;;0.88;80.72;100703.69;109671;1251;69078;-66
2024/01/31 05:08:36;;;;;;;;;;;;;;;0.92;80.51;100699.36;109614;1253;71965;-65
2024/01/31 05:11:03;;;;;;;;;;;;;;;1.01;80.00;100699.65;109553;1252;60492;-66
2024/01/31 05:13:31;;;;;;;;;;;;;;;0.95;79.86;100692.00;109602;1252;58991;-66
2024/01/31 05:15:58;;;;;;;;;;;;;;;1.03;79.59;100695.14;109555;1253;74590;-65
2024/01/31 05:18:26;;;;;;;;;;;;;;;0.84;80.38;100688.58;109624;1253;67988;-65
2024/01/31 05:20:54;;;;;;;;;;;;;;;0.83;80.65;100689.37;109606;1253;74988;-65
2024/01/31 05:23:22;;;;;;;;;;;;;;;1.03;80.11;100691.26;109586;1253;61119;-65
2024/01/31 05:25:49;;;;;;;;;;;;;;;1.04;79.19;100692.41;109492;1253;58920;-66
2024/01/31 05:28:17;;;;;;;;;;;;;;;1.00;79.49;100688.73;109570;1253;75032;-66
2024/01/31 05:30:44;;;;;;;;;;;;;;;0.95;79.84;100681.02;109350;1252;68571;-65
2024/01/31 05:33:12;;;;;;;;;;;;;;;1.07;79.29;100684.39;109597;1253;72819;-66
2024/01/31 05:35:40;;;;;;;;;;;;;;;1.07;79.33;100687.18;109524;1253;62999;-65
2024/01/31 05:38:07;;;;;;;;;;;;;;;1.15;78.76;100686.54;109672;1252;58889;-66
2024/01/31 05:40:37;;;;;;;;;;;;;;;1.15;78.46;100690.23;109254;1253;74023;-67
2024/01/31 05:43:04;;;;;;;;;;;;;;;1.27;77.50;100688.86;109608;1252;69227;-67
2024/01/31 05:45:33;;;;;;;;;;;;;;;1.22;77.73;100683.89;109578;1253;71355;-67
2024/01/31 05:48:02;;;;;;;;;;;;;;;1.25;77.37;100679.73;109645;1251;60780;-66
2024/01/31 05:50:29;;;;;;;;;;;;;;;1.29;77.33;100679.70;109634;1251;61637;-68
2024/01/31 05:52:57;;;;;;;;;;;;;;;1.33;76.92;100681.71;109194;1256;75004;-68
2024/01/31 05:55:24;;;;;;;;;;;;;;;1.30;77.41;100679.20;109648;1251;67641;-68
2024/01/31 05:57:52;;;;;;;;;;;;;;;1.28;76.89;100680.02;109571;1251;72960;-65
2024/01/31 06:00:20;;;;;;;;;;;;;;;1.31;77.18;100680.55;109613;1251;63583;-67
2024/01/31 06:02:47;;;;;;;;;;;;;;;1.36;77.34;100677.85;109640;1251;61987;-68
2024/01/31 06:05:19;;;;;;;;;;;;;;;1.36;77.04;100677.31;109621;1251;73899;-67
2024/01/31 06:07:47;;;;;;;;;;;;;;;1.26;77.50;100676.19;109633;1251;69382;-66
2024/01/31 06:10:14;;;;;;;;;;;;;;;1.26;77.18;100678.93;109563;1253;72549;-67
2024/01/31 06:12:42;;;;;;;;;;;;;;;1.37;76.81;100678.98;109605;1253;59367;-67
2024/01/31 06:15:10;;;;;;;;;;;;;;;1.44;76.04;100683.52;109610;1252;59057;-66
2024/01/31 06:17:38;;;;;;;;;;;;;;;1.48;76.11;100688.37;109607;1252;75876;-67
2024/01/31 06:20:06;;;;;;;;;;;;;;;1.44;76.21;100687.10;109636;1253;66441;-66
2024/01/31 06:22:33;;;;;;;;;;;;;;;1.57;75.98;100688.10;108825;1252;1002619;-66
2024/01/31 06:25:01;;;;;;;;;;;;;;;1.59;75.28;100691.05;109599;1253;62399;-67
2024/01/31 06:27:29;;;;;;;;;;;;;;;1.56;75.25;100687.91;109607;1253;58922;-66
2024/01/31 06:29:56;;;;;;;;;;;;;;;1.54;75.15;100689.38;109631;1252;73464;-67
2024/01/31 06:32:31;;;;;;;;;;;;;;;1.64;75.03;100687.73;109585;1253;69413;-67
2024/01/31 06:34:59;;;;;;;;;;;;;;;1.80;74.23;100693.40;109626;1253;73232;-67
2024/01/31 06:37:27;;;;;;;;;;;;;;;1.74;74.05;100692.66;109571;1253;61078;-67
2024/01/31 06:39:54;;;;;;;;;;;;;;;1.85;74.20;100692.27;109456;1252;60511;-67
2024/01/31 06:42:22;;;;;;;;;;;;;;;1.88;73.92;100690.32;109615;1252;76068;-68
2024/01/31 06:44:49;;;;;;;;;;;;;;;1.91;73.60;100689.11;109640;1252;68984;-68
2024/01/31 06:47:17;;;;;;;;;;;;;;;2.17;72.72;100692.64;109573;1253;72903;-68
2024/01/31 06:49:44;;;;;;;;;;;;;;;2.79;70.03;100695.38;109427;1252;60773;-68
2024/01/31 06:52:12;;;;;;;;;;;;;;;3.23;66.77;100692.29;109632;1252;60657;-67
2024/01/31 06:54:40;;;;;;;;;;;;;;;3.40;65.60;100693.30;109569;1253;74732;-68
2024/01/31 06:57:07;;;;;;;;;;;;;;;3.86;64.51;100693.95;109634;1252;67388;-68
2024/01/31 06:59:35;;;;;;;;;;;;;;;4.27;61.99;100699.55;109523;1253;71331;-68
2024/01/31 07:02:02;;;;;;;;;;;;;;;4.35;60.88;100697.83;109613;1253;59763;-66
2024/01/31 07:04:30;;;;;;;;;;;;;;;4.43;59.85;100701.17;109174;1254;61244;-67
2024/01/31 07:06:57;;;;;;;;;;;;;;;4.78;59.64;100702.91;109597;1252;75694;-67
2024/01/31 07:09:25;;;;;;;;;;;;;;;4.87;58.24;100702.52;109558;1252;69893;-67
2024/01/31 07:11:52;;;;;;;;;;;;;;;4.62;57.84;100708.58;109574;1252;71209;-68
2024/01/31 07:14:20;;;;;;;;;;;;;;;4.88;58.04;100705.59;109562;1253;59886;-67
2024/01/31 07:16:48;;;;;;;;;;;;;;;5.17;57.30;100705.73;109573;1253;62068;-68
2024/01/31 07:19:15;;;;;;;;;;;;;;;5.40;56.09;100703.41;109613;1252;74128;-68
2024/01/31 07:21:43;;;;;;;;;;;;;;;5.48;55.58;100704.91;109565;1253;67316;-67
2024/01/31 07:24:10;;;;;;;;;;;;;;;5.72;54.97;100700.10;109266;1252;71922;-68
2024/01/31 07:26:54;;;;;;;;;;;;;;;5.71;54.37;100696.49;109608;1253;62956;-68
2024/01/31 07:29:21;;;;;;;;;;;;;;;5.88;54.14;100699.23;109608;1253;60025;-68
2024/01/31 07:31:49;;;;;;;;;;;;;;;6.00;53.14;100697.29;109566;1253;74373;-67
2024/01/31 07:34:17;;;;;;;;;;;;;;;6.35;52.46;100693.66;109385;1256;68541;-68
2024/01/31 07:36:44;;;;;;;;;;;;;;;6.25;51.90;100697.86;109212;1255;72389;-67
2024/01/31 07:39:12;;;;;;;;;;;;;;;6.10;51.91;100697.62;109126;1257;59410;-67
2024/01/31 07:41:39;;;;;;;;;;;;;;;6.31;52.08;100693.84;109070;1257;59114;-67
2024/01/31 07:44:07;;;;;;;;;;;;;;;6.17;51.78;100688.73;109056;1257;74922;-68
2024/01/31 07:46:35;;;;;;;;;;;;;;;5.91;51.62;100689.13;109054;1257;70110;-67
2024/01/31 07:49:06;;;;;;;;;;;;;;;5.64;52.49;100684.78;109114;1256;74950;-67
2024/01/31 07:51:40;;;;;;;;;;;;;;;5.30;53.59;100680.13;109134;1257;59123;-66
2024/01/31 07:54:07;;;;;;;;;;;;;;;5.06;54.31;100680.45;109227;1256;59088;-66
2024/01/31 07:56:35;;;;;;;;;;;;;;;5.38;53.86;100684.30;109272;1256;74081;-67
2024/01/31 07:59:03;;;;;;;;;;;;;;;6.01;52.53;100680.42;109272;1256;69065;-67
2024/01/31 08:01:30;;;;;;;;;;;;;;;6.15;51.79;100677.63;109184;1256;71939;-67
2024/01/31 08:03:58;;;;;;;;;;;;;;;5.83;52.83;100677.96;109241;1256;59061;-68
2024/01/31 08:06:26;;;;;;;;;;;;;;;5.66;52.96;100674.20;109426;1253;60690;-66
2024/01/31 08:08:53;;;;;;;;;;;;;;;6.14;52.54;100677.39;109421;1254;76275;-68
2024/01/31 08:11:21;;;;;;;;;;;;;;;6.50;50.96;100677.92;109655;1251;70708;-68
2024/01/31 08:13:48;;;;;;;;;;;;;;;6.25;51.15;100679.51;109672;1251;74826;-68
2024/01/31 08:16:16;;;;;;;;;;;;;;;6.41;50.94;100672.65;109563;1251;58903;-68
2024/01/31 08:18:44;;;;;;;;;;;;;;;6.29;50.83;100673.98;109599;1251;58931;-68
2024/01/31 08:21:11;;;;;;;;;;;;;;;6.37;50.93;100670.37;109690;1251;74385;-68
2024/01/31 08:23:38;;;;;;;;;;;;;;;6.77;49.84;100668.49;109630;1251;70104;-69
2024/01/31 08:26:07;;;;;;;;;;;;;;;6.85;49.42;100670.08;109632;1251;73553;-69
2024/01/31 08:28:35;;;;;;;;;;;;;;;7.48;48.31;100672.28;109596;1251;59093;-68
2024/01/31 08:31:02;;;;;;;;;;;;;;;7.55;47.84;100671.57;109634;1251;59363;-68
2024/01/31 08:33:30;;;;;;;;;;;;;;;7.78;47.24;100671.42;109340;1250;75890;-69
2024/01/31 08:35:58;;;;;;;;;;;;;;;7.64;47.03;100668.66;109618;1251;67473;-69
2024/01/31 08:38:25;;;;;;;;;;;;;;;7.44;47.63;100663.95;109383;1251;73758;-69
2024/01/31 08:40:53;;;;;;;;;;;;;;;7.43;47.78;100667.98;109545;1253;59609;-70
2024/01/31 08:43:21;;;;;;;;;;;;;;;7.79;47.36;100674.35;109621;1251;61232;-69
2024/01/31 08:45:48;;;;;;;;;;;;;;;8.12;46.39;100669.70;109601;1251;74230;-69
2024/01/31 08:48:15;;;;;;;;;;;;;;;7.31;47.51;100671.86;109598;1251;69844;-68
2024/01/31 08:50:43;;;;;;;;;;;;;;;7.28;47.82;100671.86;109604;1251;73518;-68
2024/01/31 08:53:10;;;;;;;;;;;;;;;6.98;48.47;100672.02;109628;1251;60630;-68
2024/01/31 08:55:38;;;;;;;;;;;;;;;6.61;49.08;100670.01;109607;1251;59332;-69
2024/01/31 08:58:07;;;;;;;;;;;;;;;6.59;49.34;100668.15;109650;1251;75446;-69
2024/01/31 09:00:34;;;;;;;;;;;;;;;6.60;49.68;100665.85;109633;1250;69486;-68
2024/01/31 09:03:03;;;;;;;;;;;;;;;6.86;48.83;100659.44;109616;1251;73379;-68
2024/01/31 09:05:31;;;;;;;;;;;;;;;7.11;48.73;100659.19;109461;1251;58934;-68
2024/01/31 09:07:59;;;;;;;;;;;;;;;7.47;47.77;100656.26;109733;1251;58909;-68
2024/01/31 09:10:27;;;;;;;;;;;;;;;7.27;47.53;100650.54;109654;1253;74018;-69
2024/01/31 09:12:54;;;;;;;;;;;;;;;7.70;46.79;100649.85;109386;1252;68677;-69
2024/01/31 09:15:22;;;;;;;;;;;;;;;7.52;46.80;100639.77;109593;1253;73205;-69
2024/01/31 09:17:51;;;;;;;;;;;;;;;7.43;47.35;100635.64;109607;1253;58978;-69
2024/01/31 09:20:20;;;;;;;;;;;;;;;7.76;46.87;100628.41;109598;1253;59901;-68
2024/01/31 09:22:48;;;;;;;;;;;;;;;8.15;46.15;100626.09;109575;1253;76048;-69
2024/01/31 09:25:15;;;;;;;;;;;;;;;8.59;45.35;100623.66;109607;1252;68440;-69
2024/01/31 09:27:43;;;;;;;;;;;;;;;8.56;45.24;100621.45;109447;1252;73332;-69
2024/01/31 09:30:11;;;;;;;;;;;;;;;8.37;45.16;100615.56;109585;1253;59043;-68
2024/01/31 09:32:39;;;;;;;;;;;;;;;8.07;45.88;100613.15;109613;1253;59705;-68
2024/01/31 09:35:06;;;;;;;;;;;;;;;8.66;44.91;100610.84;109606;1253;73432;-68
2024/01/31 09:37:34;;;;;;;;;;;;;;;9.02;44.39;100611.44;109580;1252;70829;-69
2024/01/31 09:40:02;;;;;;;;;;;;;;;9.54;43.69;100610.38;109592;1252;74034;-69
2024/01/31 09:42:30;;;;;;;;;;;;;;;9.36;43.49;100606.02;109568;1253;59984;-69
2024/01/31 09:44:57;;;;;;;;;;;;;;;9.46;43.28;100605.63;109227;1252;60874;-69
2024/01/31 09:47:26;;;;;;;;;;;;;;;9.18;43.64;100598.54;109656;1251;72777;-69
2024/01/31 09:49:56;;;;;;;;;;;;;;;9.15;43.58;100594.15;109525;1251;67329;-70
2024/01/31 09:52:27;;;;;;;;;;;;;;;9.00;43.59;100589.33;109654;1251;71315;-70
2024/01/31 09:54:56;;;;;;;;;;;;;;;9.21;43.51;100583.73;109586;1253;58903;-69
2024/01/31 09:57:24;;;;;;;;;;;;;;;9.22;43.44;100581.27;109370;1251;59058;-69
2024/01/31 09:59:51;;;;;;;;;;;;;;;9.22;43.52;100579.18;109614;1251;75205;-69
2024/01/31 10:02:19;;;;;;;;;;;;;;;9.65;42.90;100581.56;109618;1251;68946;-69
2024/01/31 10:04:49;;;;;;;;;;;;;;;9.46;42.91;100574.69;109608;1251;73330;-69
2024/01/31 10:07:29;;;;;;;;;;;;;;;9.20;43.44;100571.57;109345;1255;58938;-69
2024/01/31 10:09:57;;;;;;;;;;;;;;;9.11;43.58;100563.98;109231;1257;59052;-69
2024/01/31 10:12:24;;;;;;;;;;;;;;;8.86;44.11;100559.81;109126;1256;75091;-69
2024/01/31 10:14:52;;;;;;;;;;;;;;;8.94;44.19;100554.92;109099;1256;67305;-69
2024/01/31 10:17:20;;;;;;;;;;;;;;;9.53;43.40;100560.77;109230;1257;74113;-69
2024/01/31 10:19:48;;;;;;;;;;;;;;;9.33;42.98;100560.65;109193;1256;59753;-69
2024/01/31 10:22:16;;;;;;;;;;;;;;;9.48;43.03;100560.89;109077;1259;59880;-69
2024/01/31 10:24:50;;;;;;;;;;;;;;;9.47;43.02;100558.95;108994;1259;75237;-69
2024/01/31 10:27:21;;;;;;;;;;;;;;;9.04;43.36;100552.80;109021;1258;68429;-70
2024/01/31 10:29:49;;;;;;;;;;;;;;;9.63;43.02;100560.80;108979;1259;72827;-69
2024/01/31 10:32:17;;;;;;;;;;;;;;;9.83;42.48;100557.85;108997;1258;61521;-69
2024/01/31 10:34:45;;;;;;;;;;;;;;;10.13;42.72;100555.59;109000;1258;62123;-70
2024/01/31 10:37:32;;;;;;;;;;;;;;;9.99;42.24;100554.40;109067;1253;75352;-70
2024/01/31 10:40:06;;;;;;;;;;;;;;;10.33;41.60;100550.67;109272;1254;67517;-69
2024/01/31 10:42:34;;;;;;;;;;;;;;;10.53;40.74;100550.01;109336;1254;74108;-69
2024/01/31 10:45:02;;;;;;;;;;;;;;;10.00;41.67;100544.70;109305;1256;60620;-69
2024/01/31 10:47:30;;;;;;;;;;;;;;;10.09;41.91;100546.73;109322;1254;59471;-69
2024/01/31 10:49:58;;;;;;;;;;;;;;;10.31;41.46;100542.13;109333;1254;76107;-69
2024/01/31 10:52:27;;;;;;;;;;;;;;;10.82;40.80;100541.09;109144;1257;68389;-69
2024/01/31 10:54:56;;;;;;;;;;;;;;;10.99;40.09;100543.05;109125;1257;73080;-69
2024/01/31 10:57:24;;;;;;;;;;;;;;;10.57;40.57;100534.88;109117;1257;59299;-69
2024/01/31 10:59:51;;;;;;;;;;;;;;;10.54;41.32;100533.63;109117;1255;61660;-69
2024/01/31 11:02:19;;;;;;;;;;;;;;;10.33;41.59;100526.95;109361;1256;74468;-69
2024/01/31 11:04:46;;;;;;;;;;;;;;;10.26;41.92;100528.47;109311;1255;70613;-69
2024/01/31 11:07:23;;;;;;;;;;;;;;;10.64;41.63;100529.58;109208;1256;73092;-70
2024/01/31 11:09:51;;;;;;;;;;;;;;;10.52;41.29;100522.89;109110;1254;59013;-70
2024/01/31 11:12:18;;;;;;;;;;;;;;;10.99;41.18;100522.55;109320;1254;60434;-70
2024/01/31 11:14:46;;;;;;;;;;;;;;;10.58;41.61;100512.70;109192;1254;76434;-72
2024/01/31 11:17:19;;;;;;;;;;;;;;;10.35;42.03;100510.42;109306;1254;69224;-70
2024/01/31 11:19:48;;;;;;;;;;;;;;;9.96;42.43;100503.55;109393;1254;75002;-70
2024/01/31 11:22:15;;;;;;;;;;;;;;;9.89;43.18;100504.48;109309;1256;121343;-69
2024/01/31 11:24:46;;;;;;;;;;;;;;;10.00;43.38;100504.27;109534;1253;60914;-69
2024/01/31 11:27:15;;;;;;;;;;;;;;;9.86;43.78;100500.64;109348;1257;75767;-70
2024/01/31 11:29:42;;;;;;;;;;;;;;;10.01;43.41;100502.80;109602;1252;68857;-70
2024/01/31 11:32:10;;;;;;;;;;;;;;;9.92;42.76;100501.16;109598;1252;72517;-69
2024/01/31 11:34:39;;;;;;;;;;;;;;;10.12;42.23;100501.00;109569;1253;58931;-71
2024/01/31 11:37:07;;;;;;;;;;;;;;;10.16;41.49;100499.21;109616;1253;60902;-69
2024/01/31 11:39:34;;;;;;;;;;;;;;;9.80;41.41;100496.88;108106;1253;1002563;-69
2024/01/31 11:42:02;;;;;;;;;;;;;;;9.87;41.35;100496.52;109470;1252;66485;-68
2024/01/31 11:44:30;;;;;;;;;;;;;;;9.74;41.76;100494.84;109596;1253;72869;-70
2024/01/31 11:46:58;;;;;;;;;;;;;;;10.14;41.45;100489.30;109545;1253;58874;-70
2024/01/31 11:49:25;;;;;;;;;;;;;;;10.33;41.19;100489.33;109522;1251;61663;-70
2024/01/31 11:51:53;;;;;;;;;;;;;;;10.72;40.71;100489.23;109585;1251;75116;-70
2024/01/31 11:54:21;;;;;;;;;;;;;;;10.53;40.57;100489.37;109586;1251;69285;-70
2024/01/31 11:56:48;;;;;;;;;;;;;;;10.33;40.29;100493.15;109709;1251;72745;-70
2024/01/31 11:59:16;;;;;;;;;;;;;;;10.31;39.99;100485.48;109569;1253;58856;-70
2024/01/31 12:01:43;;;;;;;;;;;;;;;10.25;40.36;100485.61;109359;1251;60811;-69
2024/01/31 12:04:11;;;;;;;;;;;;;;;10.60;40.12;100482.70;109503;1251;76002;-69
2024/01/31 12:06:39;;;;;;;;;;;;;;;10.51;40.44;100480.48;109635;1251;68511;-69
2024/01/31 12:09:07;;;;;;;;;;;;;;;10.50;40.26;100478.80;109538;1254;72603;-69
2024/01/31 12:11:34;;;;;;;;;;;;;;;10.51;40.28;100473.27;109560;1253;60320;-69
2024/01/31 12:14:02;;;;;;;;;;;;;;;10.43;40.63;100477.79;109320;1254;59883;-69
2024/01/31 12:16:38;;;;;;;;;;;;;;;10.08;40.93;100469.65;109143;1254;76874;-70
2024/01/31 12:19:07;;;;;;;;;;;;;;;10.03;41.01;100470.96;109139;1254;69424;-71
2024/01/31 12:21:41;;;;;;;;;;;;;;;9.83;41.00;100465.20;109395;1254;74953;-69
2024/01/31 12:24:09;;;;;;;;;;;;;;;10.07;40.67;100468.44;109392;1254;59004;-69
2024/01/31 12:26:38;;;;;;;;;;;;;;;9.98;41.01;100462.63;109379;1254;60501;-68
2024/01/31 12:29:05;;;;;;;;;;;;;;;10.31;40.94;100462.97;109430;1254;74015;-69
2024/01/31 12:31:33;;;;;;;;;;;;;;;10.78;40.23;100466.22;109222;1256;68418;-69
2024/01/31 12:34:02;;;;;;;;;;;;;;;10.84;40.47;100463.91;109003;1257;75049;-69
2024/01/31 12:36:29;;;;;;;;;;;;;;;10.67;40.95;100465.60;109084;1259;61669;-70
2024/01/31 12:38:57;;;;;;;;;;;;;;;9.90;42.07;100465.73;109078;1258;59799;-70